Time;durP1;ratioP1;P1;durP2;ratioP2;P2;SDS_P1;SDS_P2;PMS_P1;PMS_P2;Temp;Humidity;BMP_temperature;BMP_pressure;BME280_temperature;BME280_humidity;BME280_pressure;Samples;Min_cycle;Max_cycle;Signal;HPM_P1;HPM_P2
2023/11/06 00:01:14;;;;;;;1.55;0.50;;;;;;;;;;5060037;28;20114;-73
2023/11/06 00:03:39;;;;;;;1.50;0.50;;;;;;;;;;5053305;28;20060;-73
2023/11/06 00:06:05;;;;;;;1.02;0.47;;;;;;;;;;5063002;28;20114;-73
2023/11/06 00:08:30;;;;;;;1.60;0.50;;;;;;;;;;5054010;28;20110;-74
2023/11/06 00:10:56;;;;;;;1.23;0.40;;;;;;;;;;5050657;28;20037;-72
2023/11/06 00:13:22;;;;;;;1.00;0.38;;;;;;;;;;5058663;28;20044;-73
2023/11/06 00:15:47;;;;;;;0.80;0.40;;;;;;;;;;5060975;28;20043;-73
2023/11/06 00:18:12;;;;;;;0.77;0.23;;;;;;;;;;5053334;28;20067;-74
2023/11/06 00:20:38;;;;;;;0.85;0.47;;;;;;;;;;5051825;28;20302;-73
2023/11/06 00:23:03;;;;;;;0.93;0.38;;;;;;;;;;5062692;28;20033;-73
2023/11/06 00:25:29;;;;;;;0.88;0.38;;;;;;;;;;5061474;28;20049;-73
2023/11/06 00:27:55;;;;;;;1.75;0.40;;;;;;;;;;5049184;28;20102;-73
2023/11/06 00:30:20;;;;;;;1.45;0.40;;;;;;;;;;5056280;28;20127;-73
2023/11/06 00:32:46;;;;;;;0.80;0.22;;;;;;;;;;5065330;28;20115;-73
2023/11/06 00:35:12;;;;;;;1.45;0.47;;;;;;;;;;5049839;28;20041;-73
2023/11/06 00:37:38;;;;;;;1.52;0.43;;;;;;;;;;5060123;28;20128;-73
2023/11/06 00:40:04;;;;;;;1.80;0.47;;;;;;;;;;5047311;28;20120;-73
2023/11/06 00:42:29;;;;;;;1.13;0.35;;;;;;;;;;5050126;28;20500;-73
2023/11/06 00:44:54;;;;;;;0.73;0.30;;;;;;;;;;5047576;28;20120;-73
2023/11/06 00:47:20;;;;;;;1.33;0.60;;;;;;;;;;5053540;28;20037;-73
2023/11/06 00:49:45;;;;;;;2.10;0.50;;;;;;;;;;5058581;28;20033;-73
2023/11/06 00:52:10;;;;;;;1.40;0.40;;;;;;;;;;5054191;28;20328;-72
2023/11/06 00:54:35;;;;;;;0.80;0.40;;;;;;;;;;5062232;28;20374;-73
2023/11/06 00:57:01;;;;;;;1.08;0.32;;;;;;;;;;5054480;28;20523;-73
2023/11/06 00:59:26;;;;;;;1.42;0.70;;;;;;;;;;5063120;28;20020;-73
2023/11/06 01:01:53;;;;;;;1.07;0.50;;;;;;;;;;5060804;28;20054;-73
2023/11/06 01:04:19;;;;;;;1.63;0.38;;;;;;;;;;5063836;28;20628;-73
2023/11/06 01:06:45;;;;;;;1.75;0.50;;;;;;;;;;5054854;28;20043;-73
2023/11/06 01:09:11;;;;;;;2.22;0.40;;;;;;;;;;5057560;28;20392;-73
2023/11/06 01:11:36;;;;;;;0.82;0.45;;;;;;;;;;5056099;28;20037;-73
2023/11/06 01:14:01;;;;;;;1.10;0.40;;;;;;;;;;5060878;28;20077;-73
2023/11/06 01:16:27;;;;;;;0.83;0.50;;;;;;;;;;5050556;28;20488;-73
2023/11/06 01:18:52;;;;;;;1.05;0.40;;;;;;;;;;5057805;28;20462;-72
2023/11/06 01:21:17;;;;;;;1.45;0.50;;;;;;;;;;5055450;28;20033;-74
2023/11/06 01:23:42;;;;;;;1.15;0.47;;;;;;;;;;5057894;28;20051;-73
2023/11/06 01:26:08;;;;;;;1.23;0.30;;;;;;;;;;5058486;28;20882;-73
2023/11/06 01:28:34;;;;;;;1.13;0.45;;;;;;;;;;5054154;28;20290;-73
2023/11/06 01:31:00;;;;;;;1.00;0.40;;;;;;;;;;5057507;28;20242;-74
2023/11/06 01:33:25;;;;;;;0.82;0.43;;;;;;;;;;5062039;28;20491;-73
2023/11/06 01:35:50;;;;;;;1.87;0.40;;;;;;;;;;5055495;28;20064;-72
2023/11/06 01:38:15;;;;;;;1.35;0.40;;;;;;;;;;5061438;28;20602;-71
2023/11/06 01:40:41;;;;;;;1.10;0.40;;;;;;;;;;5058595;28;20116;-70
2023/11/06 01:43:07;;;;;;;1.02;0.50;;;;;;;;;;5061778;28;20032;-71
2023/11/06 01:45:32;;;;;;;1.23;0.60;;;;;;;;;;5050601;28;20042;-70
2023/11/06 01:47:58;;;;;;;0.98;0.40;;;;;;;;;;5078393;28;20035;-73
2023/11/06 01:50:23;;;;;;;0.90;0.50;;;;;;;;;;5082186;28;20020;-73
2023/11/06 01:52:48;;;;;;;0.68;0.30;;;;;;;;;;5069171;28;20141;-71
2023/11/06 01:55:14;;;;;;;1.17;0.30;;;;;;;;;;5073745;28;20043;-73
2023/11/06 01:57:39;;;;;;;0.83;0.30;;;;;;;;;;5076405;28;20467;-71
2023/11/06 02:00:06;;;;;;;1.10;0.40;;;;;;;;;;5070432;28;20278;-72
2023/11/06 02:02:32;;;;;;;1.30;0.43;;;;;;;;;;5054881;28;20109;-72
2023/11/06 02:04:59;;;;;;;1.13;0.40;;;;;;;;;;5061218;28;20102;-73
2023/11/06 02:07:24;;;;;;;1.55;0.40;;;;;;;;;;5052375;28;20033;-72
2023/11/06 02:09:51;;;;;;;0.60;0.32;;;;;;;;;;5057232;28;20078;-72
2023/11/06 02:12:17;;;;;;;0.68;0.40;;;;;;;;;;5053885;28;20097;-73
2023/11/06 02:14:49;;;;;;;0.98;0.38;;;;;;;;;;5066813;28;20031;-72
2023/11/06 02:17:15;;;;;;;0.80;0.40;;;;;;;;;;5060310;28;20416;-73
2023/11/06 02:19:40;;;;;;;0.88;0.30;;;;;;;;;;5059618;28;20048;-72
2023/11/06 02:22:05;;;;;;;2.93;0.30;;;;;;;;;;5052026;28;20025;-73
2023/11/06 02:24:31;;;;;;;0.90;0.40;;;;;;;;;;5053431;28;20983;-73
2023/11/06 02:26:56;;;;;;;0.90;0.38;;;;;;;;;;5049296;28;20306;-73
2023/11/06 02:29:22;;;;;;;1.40;0.40;;;;;;;;;;5061364;28;20029;-72
2023/11/06 02:31:47;;;;;;;0.70;0.30;;;;;;;;;;5049393;28;20492;-72
2023/11/06 02:34:12;;;;;;;1.45;0.50;;;;;;;;;;5035556;28;20055;-73
2023/11/06 02:36:40;;;;;;;1.30;0.50;;;;;;;;;;5051848;28;20522;-72
2023/11/06 02:39:05;;;;;;;1.85;0.60;;;;;;;;;;5061231;28;20028;-73
2023/11/06 02:41:30;;;;;;;1.08;0.25;;;;;;;;;;5047214;28;20025;-72
2023/11/06 02:43:56;;;;;;;1.30;0.40;;;;;;;;;;5056740;28;20562;-72
2023/11/06 02:46:21;;;;;;;1.33;0.50;;;;;;;;;;5053324;28;20299;-73
2023/11/06 02:48:46;;;;;;;1.13;0.40;;;;;;;;;;5055321;28;20024;-73
2023/11/06 02:51:11;;;;;;;0.80;0.40;;;;;;;;;;5066346;28;20097;-73
2023/11/06 02:53:37;;;;;;;0.63;0.35;;;;;;;;;;5063520;28;20218;-73
2023/11/06 02:56:02;;;;;;;0.70;0.40;;;;;;;;;;5056349;28;20419;-73
2023/11/06 02:58:27;;;;;;;1.45;0.60;;;;;;;;;;5067980;28;20063;-72
2023/11/06 03:00:54;;;;;;;1.08;0.40;;;;;;;;;;5067471;28;20036;-73
2023/11/06 03:03:20;;;;;;;1.20;0.47;;;;;;;;;;5048020;28;20198;-73
2023/11/06 03:05:45;;;;;;;1.15;0.40;;;;;;;;;;5054624;28;20564;-73
2023/11/06 03:08:10;;;;;;;0.75;0.40;;;;;;;;;;5060278;28;20025;-72
2023/11/06 03:10:36;;;;;;;1.10;0.50;;;;;;;;;;5059384;28;20032;-73
2023/11/06 03:13:01;;;;;;;0.95;0.40;;;;;;;;;;5066829;28;20410;-72
2023/11/06 03:15:26;;;;;;;0.95;0.40;;;;;;;;;;5057511;28;20031;-72
2023/11/06 03:17:51;;;;;;;1.37;0.50;;;;;;;;;;5062070;28;20025;-73
2023/11/06 03:20:17;;;;;;;0.70;0.38;;;;;;;;;;5057683;28;20761;-75
2023/11/06 03:22:42;;;;;;;0.80;0.40;;;;;;;;;;5054798;28;20036;-72
2023/11/06 03:25:09;;;;;;;1.52;0.38;;;;;;;;;;5060872;28;20503;-73
2023/11/06 03:27:34;;;;;;;0.90;0.30;;;;;;;;;;5067263;28;20373;-73
2023/11/06 03:29:59;;;;;;;1.07;0.33;;;;;;;;;;5067762;28;20474;-73
2023/11/06 03:32:25;;;;;;;1.00;0.37;;;;;;;;;;5059123;28;20299;-73
2023/11/06 03:34:50;;;;;;;2.03;0.43;;;;;;;;;;5059525;28;20325;-72
2023/11/06 03:37:16;;;;;;;1.17;0.45;;;;;;;;;;5059488;28;20044;-73
2023/11/06 03:39:42;;;;;;;1.00;0.40;;;;;;;;;;5065450;28;20033;-73
2023/11/06 03:42:07;;;;;;;1.15;0.40;;;;;;;;;;5062230;28;20142;-72
2023/11/06 03:44:32;;;;;;;0.73;0.47;;;;;;;;;;5061209;28;20045;-72
2023/11/06 03:46:58;;;;;;;0.95;0.35;;;;;;;;;;5058000;28;20036;-72
2023/11/06 03:49:24;;;;;;;1.83;0.45;;;;;;;;;;5063326;28;20036;-73
2023/11/06 03:51:49;;;;;;;0.60;0.30;;;;;;;;;;5049956;28;20087;-72
2023/11/06 03:54:14;;;;;;;0.82;0.35;;;;;;;;;;5052931;28;20041;-72
2023/11/06 03:56:40;;;;;;;1.17;0.35;;;;;;;;;;5059805;28;20032;-72
2023/11/06 03:59:05;;;;;;;0.70;0.30;;;;;;;;;;5071556;28;20042;-71
2023/11/06 04:01:34;;;;;;;1.83;0.45;;;;;;;;;;5066866;28;20028;-74
2023/11/06 04:04:00;;;;;;;1.05;0.50;;;;;;;;;;5048556;28;20599;-71
2023/11/06 04:06:27;;;;;;;0.77;0.30;;;;;;;;;;5057208;28;20044;-74
2023/11/06 04:08:52;;;;;;;0.80;0.40;;;;;;;;;;5053420;28;20032;-72
2023/11/06 04:11:17;;;;;;;1.00;0.50;;;;;;;;;;5063309;28;20059;-71
2023/11/06 04:13:43;;;;;;;1.33;0.60;;;;;;;;;;5067311;28;20357;-71
2023/11/06 04:16:08;;;;;;;1.65;0.40;;;;;;;;;;5060918;28;20694;-72
2023/11/06 04:18:35;;;;;;;1.67;0.50;;;;;;;;;;5055548;28;20446;-73
2023/11/06 04:21:01;;;;;;;1.15;0.40;;;;;;;;;;5064500;28;20293;-72
2023/11/06 04:23:27;;;;;;;0.88;0.30;;;;;;;;;;5048953;28;20047;-73
2023/11/06 04:25:52;;;;;;;0.88;0.40;;;;;;;;;;5056710;28;20072;-73
2023/11/06 04:28:17;;;;;;;0.97;0.50;;;;;;;;;;5057071;28;20044;-73
2023/11/06 04:30:43;;;;;;;0.93;0.50;;;;;;;;;;5047398;28;20302;-72
2023/11/06 04:33:09;;;;;;;1.45;0.47;;;;;;;;;;5047057;28;20287;-72
2023/11/06 04:35:35;;;;;;;1.15;0.43;;;;;;;;;;5055540;28;20048;-73
2023/11/06 04:38:00;;;;;;;1.40;0.40;;;;;;;;;;5059551;28;20028;-73
2023/11/06 04:40:28;;;;;;;1.30;0.63;;;;;;;;;;5055668;28;20545;-73
2023/11/06 04:42:53;;;;;;;1.33;0.50;;;;;;;;;;5061596;28;20411;-73
2023/11/06 04:45:19;;;;;;;0.90;0.40;;;;;;;;;;5048693;28;20037;-73
2023/11/06 04:47:44;;;;;;;1.67;0.50;;;;;;;;;;5059289;28;20041;-73
2023/11/06 04:50:10;;;;;;;2.63;0.60;;;;;;;;;;5055128;28;20032;-73
2023/11/06 04:52:35;;;;;;;0.90;0.40;;;;;;;;;;5053869;28;20789;-73
2023/11/06 04:55:00;;;;;;;1.30;0.50;;;;;;;;;;5065811;28;20029;-73
2023/11/06 04:57:26;;;;;;;0.95;0.43;;;;;;;;;;5050039;28;20044;-73
2023/11/06 04:59:51;;;;;;;1.03;0.43;;;;;;;;;;5066253;28;20133;-73
2023/11/06 05:02:17;;;;;;;1.20;0.45;;;;;;;;;;5063524;28;20834;-73
2023/11/06 05:04:43;;;;;;;0.88;0.50;;;;;;;;;;5063666;28;20044;-72
2023/11/06 05:07:09;;;;;;;0.93;0.30;;;;;;;;;;5057962;28;20056;-73
2023/11/06 05:09:35;;;;;;;1.08;0.40;;;;;;;;;;5044917;28;20069;-73
2023/11/06 05:12:00;;;;;;;1.07;0.50;;;;;;;;;;5052305;28;20040;-73
2023/11/06 05:14:25;;;;;;;1.53;0.63;;;;;;;;;;5058921;28;20398;-72
2023/11/06 05:16:51;;;;;;;0.77;0.45;;;;;;;;;;5054682;28;20666;-73
2023/11/06 05:19:16;;;;;;;0.95;0.40;;;;;;;;;;5044823;28;20036;-74
2023/11/06 05:21:41;;;;;;;1.25;0.60;;;;;;;;;;5053314;28;20063;-73
2023/11/06 05:24:07;;;;;;;2.10;0.60;;;;;;;;;;5056542;28;20099;-74
2023/11/06 05:26:32;;;;;;;1.20;0.30;;;;;;;;;;5049496;28;20315;-72
2023/11/06 05:28:58;;;;;;;0.93;0.47;;;;;;;;;;5050007;28;20035;-74
2023/11/06 05:31:23;;;;;;;1.77;0.50;;;;;;;;;;5052897;28;20028;-75
2023/11/06 05:33:51;;;;;;;1.15;0.50;;;;;;;;;;5051310;28;20126;-76
2023/11/06 05:36:16;;;;;;;1.02;0.50;;;;;;;;;;5050983;28;20037;-76
2023/11/06 05:38:42;;;;;;;1.88;0.40;;;;;;;;;;5052308;28;20058;-76
2023/11/06 05:41:11;;;;;;;1.25;0.50;;;;;;;;;;5051225;28;20071;-76
2023/11/06 05:43:39;;;;;;;2.33;0.50;;;;;;;;;;5051318;28;20032;-77
2023/11/06 05:46:08;;;;;;;1.10;0.55;;;;;;;;;;5035708;28;20045;-76
2023/11/06 05:48:33;;;;;;;1.83;0.50;;;;;;;;;;5049714;28;20418;-76
2023/11/06 05:51:01;;;;;;;1.88;0.57;;;;;;;;;;5049933;28;20033;-73
2023/11/06 05:53:27;;;;;;;0.93;0.40;;;;;;;;;;5050437;28;20531;-72
2023/11/06 05:55:53;;;;;;;1.10;0.50;;;;;;;;;;5049890;28;20094;-73
2023/11/06 05:58:18;;;;;;;1.30;0.40;;;;;;;;;;5053374;28;20036;-74
2023/11/06 06:00:45;;;;;;;0.57;0.32;;;;;;;;;;5051310;28;20519;-76
2023/11/06 06:03:11;;;;;;;1.42;0.50;;;;;;;;;;5050998;28;20049;-77
2023/11/06 06:05:36;;;;;;;1.50;0.50;;;;;;;;;;5051070;28;20454;-75
2023/11/06 06:08:02;;;;;;;1.65;0.70;;;;;;;;;;5050395;28;20040;-75
2023/11/06 06:10:27;;;;;;;1.10;0.55;;;;;;;;;;5057264;28;20485;-88
2023/11/06 06:12:53;;;;;;;0.88;0.47;;;;;;;;;;5036995;28;20033;-80
2023/11/06 06:15:18;;;;;;;1.50;0.60;;;;;;;;;;5052711;28;20032;-78
2023/11/06 06:17:43;;;;;;;0.95;0.50;;;;;;;;;;5054078;28;20627;-76
2023/11/06 06:20:12;;;;;;;1.83;0.63;;;;;;;;;;5047473;28;20045;-75
2023/11/06 06:22:38;;;;;;;1.00;0.60;;;;;;;;;;5048420;28;20041;-74
2023/11/06 06:25:04;;;;;;;1.48;0.50;;;;;;;;;;5042562;28;20039;-75
2023/11/06 06:27:29;;;;;;;1.33;0.40;;;;;;;;;;5054175;28;21174;-75
2023/11/06 06:29:55;;;;;;;1.77;0.60;;;;;;;;;;5052286;28;20033;-74
2023/11/06 06:32:20;;;;;;;1.27;0.50;;;;;;;;;;5054939;28;20435;-74
2023/11/06 06:34:46;;;;;;;0.90;0.50;;;;;;;;;;5053818;28;20039;-74
2023/11/06 06:37:11;;;;;;;1.98;0.70;;;;;;;;;;5055692;28;20552;-73
2023/11/06 06:39:36;;;;;;;1.95;0.65;;;;;;;;;;5052943;28;20041;-72
2023/11/06 06:42:02;;;;;;;3.00;0.93;;;;;;;;;;5052892;28;20036;-72
2023/11/06 06:44:27;;;;;;;2.15;0.60;;;;;;;;;;5036772;28;20349;-76
2023/11/06 06:46:56;;;;;;;2.25;0.80;;;;;;;;;;5053875;28;20049;-74
2023/11/06 06:49:21;;;;;;;1.73;0.50;;;;;;;;;;5055108;28;20028;-80
2023/11/06 06:51:46;;;;;;;1.13;0.57;;;;;;;;;;5040893;28;20468;-76
2023/11/06 06:54:12;;;;;;;1.77;0.53;;;;;;;;;;5051978;28;20036;-76
2023/11/06 06:56:37;;;;;;;1.67;0.60;;;;;;;;;;5053497;28;20291;-75
2023/11/06 06:59:02;;;;;;;1.85;0.60;;;;;;;;;;5055182;28;20047;-76
2023/11/06 07:01:28;;;;;;;1.80;0.60;;;;;;;;;;5054278;28;20890;-75
2023/11/06 07:03:54;;;;;;;1.40;0.60;;;;;;;;;;5052138;28;20029;-73
2023/11/06 07:06:20;;;;;;;2.13;0.77;;;;;;;;;;5054199;28;20045;-73
2023/11/06 07:08:45;;;;;;;1.25;0.70;;;;;;;;;;5054295;28;20040;-74
2023/11/06 07:11:10;;;;;;;1.67;0.60;;;;;;;;;;5051587;28;20451;-74
2023/11/06 07:13:36;;;;;;;1.95;0.88;;;;;;;;;;5053300;28;20064;-81
2023/11/06 07:16:01;;;;;;;2.70;0.73;;;;;;;;;;5055644;28;20037;-76
2023/11/06 07:18:26;;;;;;;3.95;1.17;;;;;;;;;;5057942;28;20086;-78
2023/11/06 07:20:52;;;;;;;3.30;0.80;;;;;;;;;;5053089;28;21010;-75
2023/11/06 07:23:18;;;;;;;3.33;0.75;;;;;;;;;;5053814;28;20838;-77
2023/11/06 07:25:43;;;;;;;2.58;0.80;;;;;;;;;;5045243;28;20116;-74
2023/11/06 07:28:10;;;;;;;5.47;1.00;;;;;;;;;;5055504;28;20587;-76
2023/11/06 07:30:35;;;;;;;5.68;1.20;;;;;;;;;;5054416;28;20368;-75
2023/11/06 07:33:02;;;;;;;2.25;0.90;;;;;;;;;;5057495;28;20037;-74
2023/11/06 07:35:27;;;;;;;4.13;0.88;;;;;;;;;;5059839;28;20051;-80
2023/11/06 07:37:53;;;;;;;4.47;0.73;;;;;;;;;;5055650;28;20033;-72
2023/11/06 07:40:18;;;;;;;2.83;1.00;;;;;;;;;;5054313;28;20291;-74
2023/11/06 07:42:44;;;;;;;3.27;0.80;;;;;;;;;;5051950;28;20443;-74
2023/11/06 07:45:10;;;;;;;4.68;0.90;;;;;;;;;;5055945;28;20322;-76
2023/11/06 07:47:36;;;;;;;6.07;1.20;;;;;;;;;;5049379;28;20056;-75
2023/11/06 07:50:05;;;;;;;4.95;1.27;;;;;;;;;;5053622;28;20047;-75
2023/11/06 07:52:30;;;;;;;7.47;1.25;;;;;;;;;;5054081;28;20188;-75
2023/11/06 07:54:56;;;;;;;7.10;1.30;;;;;;;;;;5055810;28;20041;-76
2023/11/06 07:57:21;;;;;;;4.70;1.08;;;;;;;;;;5053253;28;20119;-74
2023/11/06 07:59:47;;;;;;;6.28;1.13;;;;;;;;;;5052075;28;20058;-75
2023/11/06 08:02:13;;;;;;;4.00;0.98;;;;;;;;;;5054524;28;20060;-75
2023/11/06 08:04:42;;;;;;;4.97;1.17;;;;;;;;;;5052108;28;20519;-76
2023/11/06 08:07:07;;;;;;;3.67;1.00;;;;;;;;;;5053996;28;20065;-76
2023/11/06 08:09:33;;;;;;;3.30;1.23;;;;;;;;;;5054113;28;20087;-76
2023/11/06 08:11:58;;;;;;;5.63;1.08;;;;;;;;;;5053829;28;20287;-75
2023/11/06 08:14:24;;;;;;;3.72;1.13;;;;;;;;;;5054520;28;20431;-76
2023/11/06 08:16:50;;;;;;;3.85;1.30;;;;;;;;;;5055819;28;20044;-76
2023/11/06 08:19:15;;;;;;;6.10;1.20;;;;;;;;;;5052591;28;20132;-75
2023/11/06 08:21:41;;;;;;;4.43;1.00;;;;;;;;;;5051610;28;20063;-74
2023/11/06 08:24:06;;;;;;;2.65;1.10;;;;;;;;;;5052782;28;20793;-74
2023/11/06 08:26:32;;;;;;;5.25;1.13;;;;;;;;;;5050567;28;20133;-75
2023/11/06 08:28:58;;;;;;;4.68;1.05;;;;;;;;;;5052602;28;20124;-75
2023/11/06 08:31:24;;;;;;;6.10;1.48;;;;;;;;;;5050930;28;20036;-75
2023/11/06 08:33:50;;;;;;;5.20;1.33;;;;;;;;;;5051166;28;20777;-75
2023/11/06 08:36:16;;;;;;;2.97;1.02;;;;;;;;;;5052031;28;20419;-74
2023/11/06 08:38:43;;;;;;;6.93;1.40;;;;;;;;;;5052959;28;20118;-74
2023/11/06 08:41:09;;;;;;;3.03;1.00;;;;;;;;;;5050901;28;20051;-75
2023/11/06 08:43:38;;;;;;;4.47;1.10;;;;;;;;;;5056030;28;20037;-74
2023/11/06 08:46:04;;;;;;;5.28;1.40;;;;;;;;;;5053334;28;20072;-79
2023/11/06 08:48:30;;;;;;;6.32;1.30;;;;;;;;;;5032915;28;20040;-73
2023/11/06 08:50:55;;;;;;;5.50;1.33;;;;;;;;;;5052267;28;20470;-73
2023/11/06 08:53:21;;;;;;;3.92;1.30;;;;;;;;;;5047640;28;20108;-73
2023/11/06 08:55:47;;;;;;;6.57;1.48;;;;;;;;;;5049869;28;20058;-73
2023/11/06 08:58:16;;;;;;;7.03;2.03;;;;;;;;;;5051227;28;20033;-73
2023/11/06 09:00:43;;;;;;;6.68;1.40;;;;;;;;;;5049938;28;20044;-74
2023/11/06 09:03:09;;;;;;;4.15;1.48;;;;;;;;;;5048900;28;20522;-73
2023/11/06 09:05:35;;;;;;;5.60;1.45;;;;;;;;;;5050223;28;20029;-74
2023/11/06 09:08:00;;;;;;;8.15;1.50;;;;;;;;;;5051454;28;20032;-74
2023/11/06 09:10:25;;;;;;;7.25;1.45;;;;;;;;;;5050587;28;20017;-74
2023/11/06 09:12:51;;;;;;;5.30;1.80;;;;;;;;;;5051805;28;20516;-73
2023/11/06 09:15:16;;;;;;;4.28;1.50;;;;;;;;;;5057629;28;20021;-73
2023/11/06 09:17:41;;;;;;;4.47;1.60;;;;;;;;;;5058033;28;20511;-75
2023/11/06 09:20:09;;;;;;;5.03;1.77;;;;;;;;;;5049714;28;20100;-74
2023/11/06 09:22:34;;;;;;;5.43;1.90;;;;;;;;;;5050966;28;20282;-73
2023/11/06 09:25:01;;;;;;;7.30;1.80;;;;;;;;;;5052568;28;20032;-72
2023/11/06 09:27:27;;;;;;;7.35;1.70;;;;;;;;;;5052627;28;20095;-73
2023/11/06 09:29:52;;;;;;;11.23;2.35;;;;;;;;;;5053309;28;20740;-71
2023/11/06 09:32:18;;;;;;;9.00;1.93;;;;;;;;;;5052534;28;20017;-72
2023/11/06 09:34:43;;;;;;;7.22;2.05;;;;;;;;;;5051943;28;20287;-70
2023/11/06 09:37:09;;;;;;;8.10;1.92;;;;;;;;;;5052246;28;20506;-74
2023/11/06 09:39:35;;;;;;;7.25;1.92;;;;;;;;;;5053233;28;20155;-72
2023/11/06 09:42:02;;;;;;;8.65;1.83;;;;;;;;;;5052627;28;20017;-72
2023/11/06 09:44:28;;;;;;;8.05;1.77;;;;;;;;;;5054686;28;20407;-74
2023/11/06 09:46:54;;;;;;;6.13;1.80;;;;;;;;;;5052343;28;20031;-73
2023/11/06 09:49:26;;;;;;;4.60;1.50;;;;;;;;;;5051756;28;20021;-73
2023/11/06 09:51:52;;;;;;;4.57;1.50;;;;;;;;;;5053208;28;20048;-73
2023/11/06 09:54:18;;;;;;;4.75;1.50;;;;;;;;;;5051899;28;20033;-73
2023/11/06 09:56:45;;;;;;;5.07;1.40;;;;;;;;;;5053022;28;20484;-73
2023/11/06 09:59:10;;;;;;;4.72;1.73;;;;;;;;;;5031216;28;20041;-73
2023/11/06 10:01:36;;;;;;;8.82;1.80;;;;;;;;;;5052566;28;20052;-72
2023/11/06 10:04:01;;;;;;;5.65;1.50;;;;;;;;;;5050980;28;20033;-77
2023/11/06 10:06:27;;;;;;;5.37;1.43;;;;;;;;;;5050978;28;20148;-79
2023/11/06 10:08:52;;;;;;;4.80;1.70;;;;;;;;;;5048433;28;20291;-76
2023/11/06 10:11:21;;;;;;;6.15;1.83;;;;;;;;;;5050376;28;20171;-77
2023/11/06 10:13:50;;;;;;;5.03;1.60;;;;;;;;;;5056580;28;20048;-78
2023/11/06 10:16:16;;;;;;;5.97;1.45;;;;;;;;;;5049899;28;20047;-77
2023/11/06 10:18:41;;;;;;;7.70;1.50;;;;;;;;;;5034075;28;20041;-77
2023/11/06 10:21:07;;;;;;;4.40;1.38;;;;;;;;;;5050089;28;20108;-78
2023/11/06 10:23:34;;;;;;;4.93;1.23;;;;;;;;;;5035515;28;20064;-76
2023/11/06 10:26:11;;;;;;;5.20;1.60;;;;;;;;;;5054259;28;20588;-78
2023/11/06 10:28:37;;;;;;;5.03;1.45;;;;;;;;;;5050105;28;20071;-74
2023/11/06 10:31:03;;;;;;;7.82;1.80;;;;;;;;;;5050081;28;20036;-76
2023/11/06 10:33:32;;;;;;;5.13;1.40;;;;;;;;;;5051782;28;20029;-81
2023/11/06 10:35:57;;;;;;;7.18;1.60;;;;;;;;;;5050671;28;20102;-83
2023/11/06 10:38:29;;;;;;;8.02;1.83;;;;;;;;;;5053889;28;20037;-78
2023/11/06 10:40:59;;;;;;;6.25;1.85;;;;;;;;;;5052993;28;20428;-76
2023/11/06 10:43:24;;;;;;;4.70;1.45;;;;;;;;;;5049507;28;20554;-74
2023/11/06 10:45:49;;;;;;;5.75;1.30;;;;;;;;;;5051308;28;20110;-75
2023/11/06 10:48:15;;;;;;;6.38;1.50;;;;;;;;;;5050749;28;20033;-77
2023/11/06 10:50:41;;;;;;;5.97;1.45;;;;;;;;;;5032320;28;20033;-77
2023/11/06 10:53:06;;;;;;;3.80;1.30;;;;;;;;;;5050177;28;20097;-77
2023/11/06 10:55:34;;;;;;;6.43;1.60;;;;;;;;;;5049255;28;20763;-79
2023/11/06 10:58:00;;;;;;;6.85;1.63;;;;;;;;;;5051275;28;20106;-80
2023/11/06 11:00:26;;;;;;;4.90;1.20;;;;;;;;;;5038964;28;20041;-80
2023/11/06 11:02:52;;;;;;;3.53;1.35;;;;;;;;;;5040397;28;20033;-80
2023/11/06 11:05:18;;;;;;;4.57;1.40;;;;;;;;;;5037914;28;20512;-81
2023/11/06 11:07:43;;;;;;;5.75;1.40;;;;;;;;;;5052577;28;20028;-81
2023/11/06 11:10:10;;;;;;;7.10;1.70;;;;;;;;;;5050759;28;20425;-78
2023/11/06 11:12:36;;;;;;;8.02;1.70;;;;;;;;;;5041567;28;20040;-77
2023/11/06 11:15:04;;;;;;;5.68;1.75;;;;;;;;;;5042759;28;20576;-76
2023/11/06 11:17:29;;;;;;;6.05;1.25;;;;;;;;;;5053280;28;20044;-76
2023/11/06 11:19:54;;;;;;;6.13;1.50;;;;;;;;;;5042249;28;20037;-78
2023/11/06 11:22:20;;;;;;;4.28;1.50;;;;;;;;;;5041781;28;20147;-78
2023/11/06 11:24:45;;;;;;;4.82;1.75;;;;;;;;;;5056113;28;20587;-78
2023/11/06 11:27:11;;;;;;;6.53;1.63;;;;;;;;;;5047223;28;20060;-81
2023/11/06 11:29:58;;;;;;;6.22;1.88;;;;;;;;;;5056297;28;20029;-79
2023/11/06 11:32:30;;;;;;;6.80;1.48;;;;;;;;;;5053558;28;20523;-77
2023/11/06 11:35:15;;;;;;;7.30;1.77;;;;;;;;;;5051193;28;20102;-77
2023/11/06 11:37:40;;;;;;;5.43;1.50;;;;;;;;;;5051550;28;20075;-77
2023/11/06 11:40:09;;;;;;;5.60;2.00;;;;;;;;;;5058366;28;20361;-76
2023/11/06 11:42:36;;;;;;;6.93;1.88;;;;;;;;;;5037463;28;20868;-83
2023/11/06 11:45:06;;;;;;;7.85;2.10;;;;;;;;;;5035836;28;20040;-82
2023/11/06 11:47:31;;;;;;;;;;;;;;;;;;5054173;28;20099;-81
2023/11/06 11:49:56;;;;;;;8.32;1.63;;;;;;;;;;5050764;28;20454;-79
2023/11/06 11:52:22;;;;;;;6.10;1.50;;;;;;;;;;5044086;28;20044;-81
2023/11/06 11:54:47;;;;;;;6.10;1.30;;;;;;;;;;5058010;28;20012;-76
2023/11/06 11:57:12;;;;;;;6.07;1.40;;;;;;;;;;5042033;28;20020;-82
2023/11/06 11:59:39;;;;;;;6.13;1.30;;;;;;;;;;5037198;28;20029;-77
2023/11/06 12:02:05;;;;;;;5.40;1.42;;;;;;;;;;5054075;28;20013;-78
2023/11/06 12:04:31;;;;;;;6.90;1.20;;;;;;;;;;5057224;28;20009;-79
2023/11/06 12:06:59;;;;;;;6.18;1.30;;;;;;;;;;5058467;28;20032;-79
2023/11/06 12:09:24;;;;;;;4.97;1.50;;;;;;;;;;5055493;28;21899;-78
2023/11/06 12:11:50;;;;;;;3.38;0.93;;;;;;;;;;5057424;28;20024;-79
2023/11/06 12:14:15;;;;;;;5.78;1.75;;;;;;;;;;5042223;28;20032;-76
2023/11/06 12:16:50;;;;;;;5.80;1.20;;;;;;;;;;5058595;28;20619;-78
2023/11/06 12:19:15;;;;;;;5.13;1.50;;;;;;;;;;5053426;28;20048;-79
2023/11/06 12:21:41;;;;;;;3.75;1.35;;;;;;;;;;5051435;28;20063;-76
2023/11/06 12:24:07;;;;;;;6.55;1.70;;;;;;;;;;5058736;28;20040;-78
2023/11/06 12:26:33;;;;;;;5.38;1.70;;;;;;;;;;5064694;28;20516;-77
2023/11/06 12:28:59;;;;;;;8.50;1.50;;;;;;;;;;5056743;28;20090;-76
2023/11/06 12:31:25;;;;;;;6.13;1.48;;;;;;;;;;5054124;28;20047;-76
2023/11/06 12:33:50;;;;;;;4.80;1.73;;;;;;;;;;5039633;28;20032;-77
2023/11/06 12:36:28;;;;;;;7.47;1.38;;;;;;;;;;5044283;28;20042;-77
2023/11/06 12:38:54;;;;;;;7.45;1.60;;;;;;;;;;5058280;28;20036;-76
2023/11/06 12:41:28;;;;;;;6.45;1.58;;;;;;;;;;5053733;28;20467;-76
2023/11/06 12:43:54;;;;;;;4.95;1.30;;;;;;;;;;5053253;28;20035;-77
2023/11/06 12:46:19;;;;;;;7.07;1.40;;;;;;;;;;5042797;28;20944;-77
2023/11/06 12:48:46;;;;;;;6.45;1.40;;;;;;;;;;5051977;28;20048;-77
2023/11/06 12:51:13;;;;;;;6.32;1.48;;;;;;;;;;5054135;28;20044;-77
2023/11/06 12:53:43;;;;;;;4.30;1.00;;;;;;;;;;5052351;28;20527;-77
2023/11/06 12:56:10;;;;;;;;;;;;;;;;;;5059062;28;20106;-78
2023/11/06 12:58:36;;;;;;;8.63;1.65;;;;;;;;;;5053902;28;20439;-77
2023/11/06 13:01:02;;;;;;;4.65;1.33;;;;;;;;;;5051519;28;20029;-77
2023/11/06 13:03:28;;;;;;;5.57;1.10;;;;;;;;;;5051900;28;20036;-77
2023/11/06 13:05:56;;;;;;;3.42;1.27;;;;;;;;;;5053769;28;20508;-77
2023/11/06 13:08:22;;;;;;;4.32;1.10;;;;;;;;;;5053287;28;20036;-76
2023/11/06 13:10:48;;;;;;;6.82;1.25;;;;;;;;;;5057158;28;20101;-77
2023/11/06 13:13:13;;;;;;;5.40;1.23;;;;;;;;;;5054454;28;20045;-77
2023/11/06 13:15:40;;;;;;;5.38;1.23;;;;;;;;;;5068582;28;20029;-77
2023/11/06 13:18:07;;;;;;;4.65;1.10;;;;;;;;;;5069002;28;20087;-77
2023/11/06 13:20:36;;;;;;;5.22;1.33;;;;;;;;;;5058161;28;20041;-77
2023/11/06 13:23:02;;;;;;;4.47;1.33;;;;;;;;;;5069058;28;20087;-77
2023/11/06 13:25:29;;;;;;;3.28;0.90;;;;;;;;;;5059890;28;20137;-77
2023/11/06 13:27:56;;;;;;;3.63;0.93;;;;;;;;;;5053971;28;20085;-76
2023/11/06 13:30:22;;;;;;;5.00;1.20;;;;;;;;;;5043923;28;20360;-79
2023/11/06 13:32:48;;;;;;;5.72;1.20;;;;;;;;;;5053834;28;20032;-78
2023/11/06 13:35:13;;;;;;;5.65;1.38;;;;;;;;;;5059082;28;20043;-77
2023/11/06 13:37:40;;;;;;;3.78;1.10;;;;;;;;;;5056450;28;20044;-77
2023/11/06 13:40:22;;;;;;;3.15;1.10;;;;;;;;;;5059326;28;20045;-78
2023/11/06 13:43:01;;;;;;;5.20;1.23;;;;;;;;;;5048760;28;20461;-77
2023/11/06 13:45:27;;;;;;;4.20;1.23;;;;;;;;;;5050515;28;20060;-78
2023/11/06 13:47:54;;;;;;;3.45;1.00;;;;;;;;;;5065901;28;20035;-77
2023/11/06 13:50:32;;;;;;;3.60;0.90;;;;;;;;;;5066200;28;20279;-78
2023/11/06 13:53:09;;;;;;;3.03;1.10;;;;;;;;;;5063269;28;20025;-78
2023/11/06 13:55:37;;;;;;;5.43;1.17;;;;;;;;;;5044500;28;20108;-78
2023/11/06 13:58:06;;;;;;;4.32;1.17;;;;;;;;;;5054708;28;20016;-77
2023/11/06 14:00:32;;;;;;;4.03;0.90;;;;;;;;;;5064302;28;20103;-76
2023/11/06 14:03:02;;;;;;;2.72;0.70;;;;;;;;;;5056635;28;20481;-76
2023/11/06 14:05:29;;;;;;;4.13;0.95;;;;;;;;;;5056054;28;20033;-77
2023/11/06 14:07:56;;;;;;;3.15;0.70;;;;;;;;;;5052964;28;20071;-78
2023/11/06 14:10:30;;;;;;;4.10;1.00;;;;;;;;;;5059131;28;20375;-74
2023/11/06 14:12:57;;;;;;;6.05;0.93;;;;;;;;;;5055626;28;20043;-73
2023/11/06 14:15:22;;;;;;;3.28;0.93;;;;;;;;;;5062195;28;20020;-74
2023/11/06 14:17:47;;;;;;;2.80;0.98;;;;;;;;;;5055302;28;20036;-74
2023/11/06 14:20:16;;;;;;;2.60;0.60;;;;;;;;;;5058489;28;20380;-75
2023/11/06 14:22:44;;;;;;;3.63;0.88;;;;;;;;;;5061660;28;20287;-74
2023/11/06 14:25:09;;;;;;;3.47;0.90;;;;;;;;;;5064422;28;20052;-75
2023/11/06 14:27:34;;;;;;;3.22;0.88;;;;;;;;;;5044835;28;20040;-74
2023/11/06 14:30:00;;;;;;;5.50;1.08;;;;;;;;;;5049677;28;20759;-74
2023/11/06 14:32:27;;;;;;;4.82;0.98;;;;;;;;;;5052477;28;20514;-76
2023/11/06 14:34:52;;;;;;;5.63;1.05;;;;;;;;;;5051634;28;20060;-75
2023/11/06 14:37:17;;;;;;;6.97;1.48;;;;;;;;;;5063700;28;20083;-73